sensor_id;sensor_type;location;lat;lon;timestamp;P1;durP1;ratioP1;P2;durP2;ratioP2
39050;SDS011;24805;55.852;37.644;2023-02-11T00:02:44;19.23;;;8.85;;
39050;SDS011;24805;55.852;37.644;2023-02-11T00:07:48;18.05;;;7.05;;
39050;SDS011;24805;55.852;37.644;2023-02-11T00:12:50;13.07;;;7.20;;
39050;SDS011;24805;55.852;37.644;2023-02-11T00:17:52;16.38;;;6.22;;
39050;SDS011;24805;55.852;37.644;2023-02-11T00:22:54;18.83;;;7.22;;
39050;SDS011;24805;55.852;37.644;2023-02-11T00:27:56;12.07;;;6.35;;
39050;SDS011;24805;55.852;37.644;2023-02-11T00:32:59;18.20;;;6.80;;
39050;SDS011;24805;55.852;37.644;2023-02-11T00:38:01;14.55;;;6.57;;
39050;SDS011;24805;55.852;37.644;2023-02-11T00:43:05;14.48;;;6.45;;
39050;SDS011;24805;55.852;37.644;2023-02-11T00:48:07;14.20;;;7.47;;
39050;SDS011;24805;55.852;37.644;2023-02-11T00:53:09;11.52;;;5.75;;
39050;SDS011;24805;55.852;37.644;2023-02-11T00:58:12;13.32;;;6.70;;
39050;SDS011;24805;55.852;37.644;2023-02-11T01:03:16;12.73;;;5.05;;
39050;SDS011;24805;55.852;37.644;2023-02-11T01:08:18;14.15;;;5.57;;
39050;SDS011;24805;55.852;37.644;2023-02-11T01:13:20;10.63;;;5.10;;
39050;SDS011;24805;55.852;37.644;2023-02-11T01:18:23;13.27;;;5.32;;
39050;SDS011;24805;55.852;37.644;2023-02-11T01:23:26;12.85;;;5.80;;
39050;SDS011;24805;55.852;37.644;2023-02-11T01:28:29;13.77;;;5.45;;
39050;SDS011;24805;55.852;37.644;2023-02-11T01:33:33;13.50;;;5.55;;
39050;SDS011;24805;55.852;37.644;2023-02-11T01:38:35;10.35;;;4.13;;
39050;SDS011;24805;55.852;37.644;2023-02-11T01:43:43;10.85;;;4.88;;
39050;SDS011;24805;55.852;37.644;2023-02-11T01:49:22;13.98;;;4.20;;
39050;SDS011;24805;55.852;37.644;2023-02-11T01:54:23;9.95;;;4.78;;
39050;SDS011;24805;55.852;37.644;2023-02-11T02:00:04;12.15;;;4.65;;
39050;SDS011;24805;55.852;37.644;2023-02-11T02:05:39;9.70;;;4.22;;
39050;SDS011;24805;55.852;37.644;2023-02-11T02:10:43;12.07;;;4.43;;
39050;SDS011;24805;55.852;37.644;2023-02-11T02:38:19;6.57;;;2.72;;
39050;SDS011;24805;55.852;37.644;2023-02-11T02:43:04;6.35;;;2.85;;
39050;SDS011;24805;55.852;37.644;2023-02-11T02:48:25;7.45;;;2.78;;
39050;SDS011;24805;55.852;37.644;2023-02-11T02:53:38;8.57;;;2.80;;
39050;SDS011;24805;55.852;37.644;2023-02-11T03:04:20;9.20;;;3.28;;
39050;SDS011;24805;55.852;37.644;2023-02-11T03:09:31;7.90;;;3.42;;
39050;SDS011;24805;55.852;37.644;2023-02-11T03:14:56;7.47;;;2.67;;
39050;SDS011;24805;55.852;37.644;2023-02-11T03:20:00;7.18;;;2.80;;
39050;SDS011;24805;55.852;37.644;2023-02-11T03:25:05;11.02;;;3.22;;
39050;SDS011;24805;55.852;37.644;2023-02-11T03:35:47;7.40;;;2.97;;
39050;SDS011;24805;55.852;37.644;2023-02-11T03:40:54;6.50;;;2.78;;
39050;SDS011;24805;55.852;37.644;2023-02-11T03:45:58;5.88;;;2.25;;
39050;SDS011;24805;55.852;37.644;2023-02-11T03:51:02;6.10;;;2.33;;
39050;SDS011;24805;55.852;37.644;2023-02-11T03:56:08;7.03;;;2.58;;
39050;SDS011;24805;55.852;37.644;2023-02-11T04:01:15;7.78;;;2.00;;
39050;SDS011;24805;55.852;37.644;2023-02-11T04:06:17;7.80;;;2.78;;
39050;SDS011;24805;55.852;37.644;2023-02-11T04:11:19;4.65;;;1.90;;
39050;SDS011;24805;55.852;37.644;2023-02-11T04:16:21;5.53;;;1.92;;
39050;SDS011;24805;55.852;37.644;2023-02-11T04:21:23;6.15;;;2.33;;
39050;SDS011;24805;55.852;37.644;2023-02-11T04:26:26;4.90;;;1.65;;
39050;SDS011;24805;55.852;37.644;2023-02-11T04:31:28;5.55;;;1.58;;
39050;SDS011;24805;55.852;37.644;2023-02-11T04:36:30;4.63;;;1.70;;
39050;SDS011;24805;55.852;37.644;2023-02-11T04:41:32;7.68;;;1.98;;
39050;SDS011;24805;55.852;37.644;2023-02-11T04:46:34;6.75;;;1.50;;
39050;SDS011;24805;55.852;37.644;2023-02-11T04:51:36;4.70;;;1.70;;
39050;SDS011;24805;55.852;37.644;2023-02-11T04:56:38;4.63;;;1.73;;
39050;SDS011;24805;55.852;37.644;2023-02-11T05:01:41;4.97;;;1.75;;
39050;SDS011;24805;55.852;37.644;2023-02-11T05:06:43;6.18;;;2.20;;
39050;SDS011;24805;55.852;37.644;2023-02-11T05:11:45;2.00;;;1.02;;
39050;SDS011;24805;55.852;37.644;2023-02-11T05:16:47;9.38;;;2.70;;
39050;SDS011;24805;55.852;37.644;2023-02-11T05:21:49;7.32;;;2.28;;
39050;SDS011;24805;55.852;37.644;2023-02-11T05:27:03;7.70;;;2.47;;
39050;SDS011;24805;55.852;37.644;2023-02-11T05:32:05;5.40;;;1.85;;
39050;SDS011;24805;55.852;37.644;2023-02-11T05:37:09;6.15;;;1.90;;
39050;SDS011;24805;55.852;37.644;2023-02-11T05:42:12;5.57;;;1.85;;
39050;SDS011;24805;55.852;37.644;2023-02-11T05:47:14;5.13;;;1.50;;
39050;SDS011;24805;55.852;37.644;2023-02-11T05:52:16;6.05;;;2.03;;
39050;SDS011;24805;55.852;37.644;2023-02-11T05:57:18;6.40;;;2.05;;
39050;SDS011;24805;55.852;37.644;2023-02-11T06:02:21;7.07;;;2.15;;
39050;SDS011;24805;55.852;37.644;2023-02-11T06:07:23;6.18;;;2.30;;
39050;SDS011;24805;55.852;37.644;2023-02-11T06:12:25;6.30;;;1.45;;
39050;SDS011;24805;55.852;37.644;2023-02-11T06:17:27;6.07;;;1.85;;
39050;SDS011;24805;55.852;37.644;2023-02-11T06:22:34;5.43;;;2.45;;
39050;SDS011;24805;55.852;37.644;2023-02-11T06:27:36;5.43;;;1.60;;
39050;SDS011;24805;55.852;37.644;2023-02-11T06:32:38;6.68;;;2.30;;
39050;SDS011;24805;55.852;37.644;2023-02-11T06:37:45;6.15;;;1.65;;
39050;SDS011;24805;55.852;37.644;2023-02-11T06:42:48;6.13;;;2.00;;
39050;SDS011;24805;55.852;37.644;2023-02-11T06:47:50;8.65;;;2.60;;
39050;SDS011;24805;55.852;37.644;2023-02-11T06:52:54;5.75;;;2.03;;
39050;SDS011;24805;55.852;37.644;2023-02-11T06:57:56;7.88;;;2.08;;
39050;SDS011;24805;55.852;37.644;2023-02-11T07:02:58;5.38;;;2.20;;
39050;SDS011;24805;55.852;37.644;2023-02-11T07:08:01;6.75;;;2.50;;
39050;SDS011;24805;55.852;37.644;2023-02-11T07:13:03;5.00;;;2.45;;
39050;SDS011;24805;55.852;37.644;2023-02-11T07:18:05;9.73;;;2.45;;
39050;SDS011;24805;55.852;37.644;2023-02-11T07:23:07;7.07;;;2.30;;
39050;SDS011;24805;55.852;37.644;2023-02-11T07:28:10;5.55;;;1.70;;
39050;SDS011;24805;55.852;37.644;2023-02-11T07:33:12;13.30;;;1.95;;
39050;SDS011;24805;55.852;37.644;2023-02-11T07:38:14;5.85;;;2.28;;
39050;SDS011;24805;55.852;37.644;2023-02-11T07:48:18;5.95;;;2.28;;
39050;SDS011;24805;55.852;37.644;2023-02-11T07:53:20;10.18;;;2.70;;
39050;SDS011;24805;55.852;37.644;2023-02-11T07:58:22;7.05;;;3.00;;
39050;SDS011;24805;55.852;37.644;2023-02-11T08:08:26;8.52;;;3.30;;
39050;SDS011;24805;55.852;37.644;2023-02-11T08:13:28;5.65;;;2.83;;
39050;SDS011;24805;55.852;37.644;2023-02-11T08:18:30;9.77;;;3.75;;
39050;SDS011;24805;55.852;37.644;2023-02-11T08:23:37;10.38;;;3.80;;
39050;SDS011;24805;55.852;37.644;2023-02-11T08:28:41;8.75;;;3.65;;
39050;SDS011;24805;55.852;37.644;2023-02-11T08:33:44;11.40;;;4.75;;
39050;SDS011;24805;55.852;37.644;2023-02-11T08:38:46;8.52;;;4.00;;
39050;SDS011;24805;55.852;37.644;2023-02-11T08:43:48;12.48;;;4.93;;
39050;SDS011;24805;55.852;37.644;2023-02-11T08:48:50;11.52;;;4.60;;
39050;SDS011;24805;55.852;37.644;2023-02-11T08:53:53;10.05;;;4.40;;
39050;SDS011;24805;55.852;37.644;2023-02-11T08:58:55;13.32;;;4.82;;
39050;SDS011;24805;55.852;37.644;2023-02-11T09:03:58;14.45;;;5.40;;
39050;SDS011;24805;55.852;37.644;2023-02-11T09:09:00;10.90;;;4.30;;
39050;SDS011;24805;55.852;37.644;2023-02-11T09:14:02;7.55;;;3.42;;
39050;SDS011;24805;55.852;37.644;2023-02-11T09:19:05;9.65;;;3.72;;
39050;SDS011;24805;55.852;37.644;2023-02-11T09:24:07;10.35;;;5.05;;
39050;SDS011;24805;55.852;37.644;2023-02-11T09:29:09;7.93;;;4.13;;
39050;SDS011;24805;55.852;37.644;2023-02-11T09:34:11;16.85;;;4.65;;
39050;SDS011;24805;55.852;37.644;2023-02-11T09:39:17;12.48;;;5.05;;
39050;SDS011;24805;55.852;37.644;2023-02-11T09:44:22;11.18;;;3.95;;
39050;SDS011;24805;55.852;37.644;2023-02-11T09:49:40;9.13;;;4.13;;
39050;SDS011;24805;55.852;37.644;2023-02-11T09:54:49;10.27;;;4.13;;
39050;SDS011;24805;55.852;37.644;2023-02-11T09:59:56;13.55;;;5.07;;
39050;SDS011;24805;55.852;37.644;2023-02-11T10:10:58;9.07;;;4.05;;
39050;SDS011;24805;55.852;37.644;2023-02-11T10:16:08;12.18;;;3.97;;
39050;SDS011;24805;55.852;37.644;2023-02-11T10:21:27;8.95;;;4.60;;
39050;SDS011;24805;55.852;37.644;2023-02-11T10:26:42;13.45;;;4.40;;
39050;SDS011;24805;55.852;37.644;2023-02-11T10:31:46;10.82;;;4.30;;
39050;SDS011;24805;55.852;37.644;2023-02-11T10:36:50;13.90;;;5.10;;
39050;SDS011;24805;55.852;37.644;2023-02-11T10:41:56;11.90;;;4.63;;
39050;SDS011;24805;55.852;37.644;2023-02-11T10:47:18;9.70;;;3.95;;
39050;SDS011;24805;55.852;37.644;2023-02-11T10:52:24;8.95;;;3.58;;
39050;SDS011;24805;55.852;37.644;2023-02-11T10:57:29;12.25;;;4.35;;
39050;SDS011;24805;55.852;37.644;2023-02-11T11:02:33;13.70;;;5.30;;
39050;SDS011;24805;55.852;37.644;2023-02-11T11:07:39;12.90;;;5.00;;
39050;SDS011;24805;55.852;37.644;2023-02-11T11:12:59;11.57;;;4.18;;
39050;SDS011;24805;55.852;37.644;2023-02-11T11:23:23;12.20;;;4.45;;
39050;SDS011;24805;55.852;37.644;2023-02-11T11:28:27;14.85;;;5.60;;
39050;SDS011;24805;55.852;37.644;2023-02-11T11:33:32;8.98;;;4.43;;
39050;SDS011;24805;55.852;37.644;2023-02-11T11:38:37;11.90;;;5.57;;
39050;SDS011;24805;55.852;37.644;2023-02-11T11:54:45;11.80;;;4.88;;
39050;SDS011;24805;55.852;37.644;2023-02-11T11:59:56;10.60;;;4.53;;
39050;SDS011;24805;55.852;37.644;2023-02-11T12:05:00;11.98;;;5.45;;
39050;SDS011;24805;55.852;37.644;2023-02-11T12:21:21;12.90;;;5.47;;
39050;SDS011;24805;55.852;37.644;2023-02-11T12:58:25;16.33;;;6.97;;
39050;SDS011;24805;55.852;37.644;2023-02-11T13:09:02;13.85;;;5.65;;
39050;SDS011;24805;55.852;37.644;2023-02-11T13:14:20;14.38;;;6.20;;
39050;SDS011;24805;55.852;37.644;2023-02-11T13:19:43;16.00;;;6.80;;
39050;SDS011;24805;55.852;37.644;2023-02-11T13:40:38;17.63;;;7.07;;
39050;SDS011;24805;55.852;37.644;2023-02-11T13:45:42;17.33;;;7.32;;
39050;SDS011;24805;55.852;37.644;2023-02-11T13:50:47;13.55;;;6.53;;
39050;SDS011;24805;55.852;37.644;2023-02-11T13:56:03;17.25;;;7.75;;
39050;SDS011;24805;55.852;37.644;2023-02-11T14:01:08;19.95;;;7.07;;
39050;SDS011;24805;55.852;37.644;2023-02-11T14:06:11;17.85;;;6.80;;
39050;SDS011;24805;55.852;37.644;2023-02-11T14:16:36;16.00;;;7.95;;
39050;SDS011;24805;55.852;37.644;2023-02-11T14:38:10;15.00;;;6.28;;
39050;SDS011;24805;55.852;37.644;2023-02-11T14:43:37;18.45;;;7.05;;
39050;SDS011;24805;55.852;37.644;2023-02-11T14:48:47;20.13;;;7.63;;
39050;SDS011;24805;55.852;37.644;2023-02-11T14:54:11;19.08;;;7.65;;
39050;SDS011;24805;55.852;37.644;2023-02-11T14:59:18;18.15;;;7.18;;
39050;SDS011;24805;55.852;37.644;2023-02-11T15:04:26;14.30;;;6.23;;
39050;SDS011;24805;55.852;37.644;2023-02-11T15:09:38;25.20;;;9.18;;
39050;SDS011;24805;55.852;37.644;2023-02-11T15:14:47;20.50;;;9.43;;
39050;SDS011;24805;55.852;37.644;2023-02-11T15:19:52;18.80;;;7.95;;
39050;SDS011;24805;55.852;37.644;2023-02-11T15:25:01;19.80;;;6.82;;
39050;SDS011;24805;55.852;37.644;2023-02-11T15:30:16;25.90;;;7.70;;
39050;SDS011;24805;55.852;37.644;2023-02-11T15:40:35;19.63;;;8.52;;
39050;SDS011;24805;55.852;37.644;2023-02-11T15:45:38;14.50;;;5.57;;
39050;SDS011;24805;55.852;37.644;2023-02-11T15:50:51;17.67;;;7.25;;
39050;SDS011;24805;55.852;37.644;2023-02-11T16:01:01;14.15;;;6.85;;
39050;SDS011;24805;55.852;37.644;2023-02-11T16:06:14;24.50;;;9.40;;
39050;SDS011;24805;55.852;37.644;2023-02-11T16:11:32;19.52;;;8.13;;
39050;SDS011;24805;55.852;37.644;2023-02-11T16:16:36;21.92;;;9.30;;
39050;SDS011;24805;55.852;37.644;2023-02-11T16:21:40;21.73;;;8.70;;
39050;SDS011;24805;55.852;37.644;2023-02-11T16:26:46;22.73;;;8.60;;
39050;SDS011;24805;55.852;37.644;2023-02-11T16:31:51;21.60;;;8.00;;
39050;SDS011;24805;55.852;37.644;2023-02-11T16:36:55;20.00;;;8.00;;
39050;SDS011;24805;55.852;37.644;2023-02-11T16:41:57;29.13;;;8.30;;
39050;SDS011;24805;55.852;37.644;2023-02-11T16:47:00;16.02;;;7.35;;
39050;SDS011;24805;55.852;37.644;2023-02-11T16:52:05;21.83;;;7.93;;
39050;SDS011;24805;55.852;37.644;2023-02-11T16:57:16;25.13;;;8.13;;
39050;SDS011;24805;55.852;37.644;2023-02-11T17:02:27;23.73;;;8.82;;
39050;SDS011;24805;55.852;37.644;2023-02-11T17:07:31;27.08;;;8.20;;
39050;SDS011;24805;55.852;37.644;2023-02-11T17:12:34;17.45;;;8.25;;
39050;SDS011;24805;55.852;37.644;2023-02-11T17:17:36;22.30;;;9.68;;
39050;SDS011;24805;55.852;37.644;2023-02-11T17:22:38;17.15;;;6.80;;
39050;SDS011;24805;55.852;37.644;2023-02-11T17:27:40;14.65;;;7.72;;
39050;SDS011;24805;55.852;37.644;2023-02-11T17:32:42;17.02;;;7.72;;
39050;SDS011;24805;55.852;37.644;2023-02-11T17:37:44;13.35;;;7.88;;
39050;SDS011;24805;55.852;37.644;2023-02-11T17:42:47;17.60;;;7.88;;
39050;SDS011;24805;55.852;37.644;2023-02-11T17:47:49;13.15;;;5.70;;
39050;SDS011;24805;55.852;37.644;2023-02-11T17:52:51;13.32;;;6.93;;
39050;SDS011;24805;55.852;37.644;2023-02-11T17:57:53;14.02;;;7.32;;
39050;SDS011;24805;55.852;37.644;2023-02-11T18:02:56;15.40;;;6.03;;
39050;SDS011;24805;55.852;37.644;2023-02-11T18:08:06;15.20;;;6.50;;
39050;SDS011;24805;55.852;37.644;2023-02-11T18:13:09;11.55;;;5.85;;
39050;SDS011;24805;55.852;37.644;2023-02-11T18:18:11;10.93;;;4.72;;
39050;SDS011;24805;55.852;37.644;2023-02-11T18:23:13;12.63;;;5.03;;
39050;SDS011;24805;55.852;37.644;2023-02-11T18:28:15;11.70;;;5.68;;
39050;SDS011;24805;55.852;37.644;2023-02-11T18:33:17;15.27;;;5.00;;
39050;SDS011;24805;55.852;37.644;2023-02-11T18:38:19;15.38;;;6.05;;
39050;SDS011;24805;55.852;37.644;2023-02-11T18:43:22;8.88;;;5.13;;
39050;SDS011;24805;55.852;37.644;2023-02-11T18:48:25;12.15;;;5.03;;
39050;SDS011;24805;55.852;37.644;2023-02-11T18:53:27;10.07;;;5.13;;
39050;SDS011;24805;55.852;37.644;2023-02-11T18:58:30;9.07;;;5.25;;
39050;SDS011;24805;55.852;37.644;2023-02-11T19:03:32;9.77;;;5.03;;
39050;SDS011;24805;55.852;37.644;2023-02-11T19:08:34;7.25;;;4.43;;
39050;SDS011;24805;55.852;37.644;2023-02-11T19:13:36;12.35;;;5.07;;
39050;SDS011;24805;55.852;37.644;2023-02-11T19:18:38;9.40;;;4.15;;
39050;SDS011;24805;55.852;37.644;2023-02-11T19:23:40;10.05;;;4.00;;
39050;SDS011;24805;55.852;37.644;2023-02-11T19:28:42;9.13;;;5.20;;
39050;SDS011;24805;55.852;37.644;2023-02-11T19:33:45;11.05;;;5.55;;
39050;SDS011;24805;55.852;37.644;2023-02-11T19:38:47;10.68;;;4.65;;
39050;SDS011;24805;55.852;37.644;2023-02-11T19:43:50;8.18;;;4.20;;
39050;SDS011;24805;55.852;37.644;2023-02-11T19:48:53;9.73;;;4.97;;
39050;SDS011;24805;55.852;37.644;2023-02-11T19:53:56;9.27;;;4.32;;
39050;SDS011;24805;55.852;37.644;2023-02-11T19:59:00;7.28;;;4.20;;
39050;SDS011;24805;55.852;37.644;2023-02-11T20:04:03;6.60;;;4.40;;
39050;SDS011;24805;55.852;37.644;2023-02-11T20:09:07;12.32;;;5.05;;
39050;SDS011;24805;55.852;37.644;2023-02-11T20:14:12;7.22;;;3.70;;
39050;SDS011;24805;55.852;37.644;2023-02-11T20:19:16;7.63;;;3.40;;
39050;SDS011;24805;55.852;37.644;2023-02-11T20:24:21;7.82;;;4.45;;
39050;SDS011;24805;55.852;37.644;2023-02-11T20:29:23;7.97;;;4.43;;
39050;SDS011;24805;55.852;37.644;2023-02-11T20:34:26;6.95;;;4.15;;
39050;SDS011;24805;55.852;37.644;2023-02-11T20:39:28;7.65;;;3.80;;
39050;SDS011;24805;55.852;37.644;2023-02-11T20:44:30;8.75;;;3.78;;
39050;SDS011;24805;55.852;37.644;2023-02-11T20:49:32;6.53;;;3.35;;
39050;SDS011;24805;55.852;37.644;2023-02-11T20:54:34;8.10;;;4.35;;
39050;SDS011;24805;55.852;37.644;2023-02-11T20:59:36;6.93;;;3.78;;
39050;SDS011;24805;55.852;37.644;2023-02-11T21:04:38;6.80;;;3.60;;
39050;SDS011;24805;55.852;37.644;2023-02-11T21:09:41;8.75;;;4.22;;
39050;SDS011;24805;55.852;37.644;2023-02-11T21:14:43;8.48;;;3.83;;
39050;SDS011;24805;55.852;37.644;2023-02-11T21:19:45;6.22;;;3.65;;
39050;SDS011;24805;55.852;37.644;2023-02-11T21:24:47;8.15;;;4.13;;
39050;SDS011;24805;55.852;37.644;2023-02-11T21:29:49;6.88;;;3.70;;
39050;SDS011;24805;55.852;37.644;2023-02-11T21:34:55;9.30;;;4.10;;
39050;SDS011;24805;55.852;37.644;2023-02-11T21:39:57;7.00;;;3.75;;
39050;SDS011;24805;55.852;37.644;2023-02-11T21:44:59;8.77;;;3.78;;
39050;SDS011;24805;55.852;37.644;2023-02-11T21:50:01;7.88;;;3.97;;
39050;SDS011;24805;55.852;37.644;2023-02-11T21:55:04;5.97;;;3.30;;
39050;SDS011;24805;55.852;37.644;2023-02-11T22:00:07;7.45;;;3.88;;
39050;SDS011;24805;55.852;37.644;2023-02-11T22:05:10;8.65;;;3.72;;
39050;SDS011;24805;55.852;37.644;2023-02-11T22:10:12;7.53;;;3.50;;
39050;SDS011;24805;55.852;37.644;2023-02-11T22:15:15;7.25;;;3.80;;
39050;SDS011;24805;55.852;37.644;2023-02-11T22:20:17;6.20;;;3.50;;
39050;SDS011;24805;55.852;37.644;2023-02-11T22:25:19;6.93;;;3.78;;
39050;SDS011;24805;55.852;37.644;2023-02-11T22:30:21;7.95;;;3.45;;
39050;SDS011;24805;55.852;37.644;2023-02-11T22:35:23;7.72;;;3.75;;
39050;SDS011;24805;55.852;37.644;2023-02-11T22:40:25;8.27;;;3.13;;
39050;SDS011;24805;55.852;37.644;2023-02-11T22:45:27;5.50;;;3.85;;
39050;SDS011;24805;55.852;37.644;2023-02-11T22:50:29;5.18;;;3.47;;
39050;SDS011;24805;55.852;37.644;2023-02-11T22:55:35;6.38;;;3.47;;
39050;SDS011;24805;55.852;37.644;2023-02-11T23:00:39;7.55;;;3.65;;
39050;SDS011;24805;55.852;37.644;2023-02-11T23:05:42;7.22;;;3.83;;
39050;SDS011;24805;55.852;37.644;2023-02-11T23:10:44;6.88;;;3.97;;
39050;SDS011;24805;55.852;37.644;2023-02-11T23:15:46;12.73;;;6.30;;
39050;SDS011;24805;55.852;37.644;2023-02-11T23:20:49;7.90;;;4.82;;
39050;SDS011;24805;55.852;37.644;2023-02-11T23:25:51;7.78;;;4.57;;
39050;SDS011;24805;55.852;37.644;2023-02-11T23:30:53;6.78;;;4.20;;
39050;SDS011;24805;55.852;37.644;2023-02-11T23:35:56;5.85;;;3.75;;
39050;SDS011;24805;55.852;37.644;2023-02-11T23:40:58;6.22;;;3.30;;
39050;SDS011;24805;55.852;37.644;2023-02-11T23:46:00;6.22;;;3.08;;
39050;SDS011;24805;55.852;37.644;2023-02-11T23:51:02;5.43;;;2.85;;
39050;SDS011;24805;55.852;37.644;2023-02-11T23:56:08;3.80;;;2.70;;
